createdAt,value
2017-06-12T00:02:03.281Z,64.60
2017-06-12T00:04:31.469Z,63.80
2017-06-12T00:06:59.690Z,63.90
2017-06-12T00:09:27.862Z,63.70
2017-06-12T00:11:56.043Z,63.00
2017-06-12T00:14:24.237Z,63.00
2017-06-12T00:16:52.409Z,64.00
2017-06-12T00:19:20.573Z,64.40
2017-06-12T00:21:48.760Z,64.70
2017-06-12T00:24:16.970Z,64.10
2017-06-12T00:26:45.274Z,64.00
2017-06-12T00:29:14.264Z,63.00
2017-06-12T00:31:42.442Z,63.00
2017-06-12T00:34:10.664Z,64.50
2017-06-12T00:36:38.936Z,66.30
2017-06-12T00:39:07.258Z,68.40
2017-06-12T00:41:35.441Z,69.20
2017-06-12T00:44:04.361Z,70.60
2017-06-12T00:46:32.519Z,70.60
2017-06-12T00:49:01.026Z,69.90
2017-06-12T00:51:29.187Z,69.90
2017-06-12T00:53:57.827Z,70.90
2017-06-12T00:56:26.073Z,70.10
2017-06-12T00:58:54.258Z,70.30
2017-06-12T01:01:22.594Z,71.20
2017-06-12T01:03:50.806Z,70.70
2017-06-12T01:06:18.970Z,69.60
2017-06-12T01:08:47.265Z,69.80
2017-06-12T01:14:16.411Z,70.60
2017-06-12T01:16:44.587Z,70.50
2017-06-12T01:19:12.846Z,69.90
2017-06-12T01:22:01.690Z,69.90
2017-06-12T01:24:29.858Z,70.80
2017-06-12T01:26:58.033Z,70.60
2017-06-12T01:29:26.638Z,70.70
2017-06-12T01:44:45.043Z,70.20
2017-06-12T01:47:13.270Z,67.60
2017-06-12T01:49:41.641Z,69.40
2017-06-12T01:52:09.845Z,70.20
2017-06-12T01:54:38.012Z,70.80
2017-06-12T01:57:06.188Z,71.00
2017-06-12T01:59:34.411Z,70.80
2017-06-12T02:02:02.592Z,70.60
2017-06-12T02:04:30.783Z,70.70
2017-06-12T02:06:59.003Z,71.20
2017-06-12T02:09:27.207Z,70.30
2017-06-12T02:11:55.375Z,70.30
2017-06-12T02:14:23.686Z,69.60
2017-06-12T02:16:51.906Z,69.70
2017-06-12T02:19:20.096Z,69.20
2017-06-12T02:21:48.324Z,70.00
2017-06-12T02:24:16.526Z,70.70
2017-06-12T02:26:44.700Z,71.70
2017-06-12T02:29:12.932Z,72.60
2017-06-12T02:31:41.118Z,71.90
2017-06-12T02:34:09.343Z,71.90
2017-06-12T02:36:37.550Z,73.10
2017-06-12T02:39:05.727Z,73.30
2017-06-12T02:41:33.929Z,73.80
2017-06-12T02:44:02.470Z,73.20
2017-06-12T02:46:30.667Z,73.60
2017-06-12T02:48:58.858Z,73.40
2017-06-12T02:51:27.099Z,72.70
2017-06-12T02:53:55.288Z,71.20
2017-06-12T02:56:23.681Z,70.00
2017-06-12T02:58:52.246Z,69.60
2017-06-12T03:01:20.664Z,70.10
2017-06-12T03:03:48.903Z,70.40
2017-06-12T03:06:17.086Z,71.10
2017-06-12T03:08:45.331Z,71.60
2017-06-12T03:11:13.682Z,72.20
2017-06-12T03:13:41.880Z,71.60
2017-06-12T03:16:10.096Z,72.00
2017-06-12T03:18:38.480Z,71.90
2017-06-12T03:21:06.648Z,72.10
2017-06-12T03:23:34.824Z,72.20
2017-06-12T03:26:03.098Z,72.80
2017-06-12T03:28:31.315Z,72.40
2017-06-12T03:30:59.527Z,72.60
2017-06-12T03:33:27.723Z,72.50
2017-06-12T03:35:55.949Z,72.50
2017-06-12T03:38:24.166Z,72.10
2017-06-12T03:40:52.375Z,72.30
2017-06-12T03:43:20.647Z,72.30
2017-06-12T03:45:49.150Z,71.70
2017-06-12T03:48:17.322Z,72.50
2017-06-12T03:50:45.513Z,72.10
2017-06-12T03:53:13.738Z,71.70
2017-06-12T03:55:42.694Z,72.00
2017-06-12T03:58:10.903Z,71.90
2017-06-12T04:00:40.084Z,71.60
2017-06-12T04:03:08.932Z,71.50
2017-06-12T04:05:37.160Z,71.20
2017-06-12T04:08:06.158Z,71.00
2017-06-12T04:10:34.515Z,71.00
2017-06-12T04:13:02.795Z,69.90
2017-06-12T04:15:31.412Z,69.90
2017-06-12T04:17:59.642Z,70.20
2017-06-12T04:20:28.022Z,70.20
2017-06-12T04:22:56.267Z,69.60
2017-06-12T04:25:24.488Z,69.50
2017-06-12T04:27:52.684Z,68.50
2017-06-12T04:30:20.939Z,67.70
2017-06-12T04:32:49.899Z,68.00
2017-06-12T04:35:18.102Z,68.00
2017-06-12T04:37:47.079Z,65.60
2017-06-12T04:40:15.300Z,65.60
2017-06-12T04:42:43.483Z,62.50
2017-06-12T04:45:11.819Z,60.50
2017-06-12T04:47:40.034Z,58.80
2017-06-12T04:50:08.208Z,57.80
2017-06-12T04:52:36.567Z,56.80
2017-06-12T04:55:04.771Z,56.10
2017-06-12T04:57:32.962Z,55.80
2017-06-12T05:00:01.209Z,54.80
2017-06-12T05:02:29.554Z,53.40
2017-06-12T05:04:57.742Z,52.80
2017-06-12T05:07:25.929Z,52.30
2017-06-12T05:09:54.180Z,51.40
2017-06-12T05:12:22.359Z,53.40
2017-06-12T05:14:50.630Z,55.40
2017-06-12T05:17:18.834Z,58.00
2017-06-12T05:19:47.033Z,59.50
2017-06-12T05:22:15.248Z,59.90
2017-06-12T05:24:43.547Z,56.80
2017-06-12T05:27:11.827Z,54.00
2017-06-12T05:29:40.099Z,54.80
2017-06-12T05:32:08.308Z,56.10
2017-06-12T05:34:36.515Z,56.60
2017-06-12T05:37:05.446Z,55.90
2017-06-12T05:39:33.667Z,55.90
2017-06-12T05:42:01.978Z,56.00
2017-06-12T05:44:30.238Z,56.00
2017-06-12T05:46:58.497Z,52.90
2017-06-12T05:49:27.452Z,51.70
2017-06-12T05:51:56.978Z,51.70
2017-06-12T05:54:25.202Z,51.10
2017-06-12T05:56:53.385Z,51.40
2017-06-12T05:59:21.605Z,53.40
2017-06-12T06:01:50.565Z,51.60
2017-06-12T06:04:18.747Z,51.00
2017-06-12T06:06:46.948Z,48.20
2017-06-12T06:09:15.141Z,46.50
2017-06-12T06:11:43.312Z,46.30
2017-06-12T06:14:11.479Z,45.20
2017-06-12T06:16:39.677Z,46.10
2017-06-12T06:19:07.856Z,48.80
2017-06-12T06:21:36.190Z,47.00
2017-06-12T06:24:04.405Z,46.10
2017-06-12T06:26:32.638Z,46.50
2017-06-12T06:29:01.608Z,46.30
2017-06-12T06:31:29.802Z,46.30
2017-06-12T06:33:57.991Z,45.10
2017-06-12T06:36:26.180Z,46.50
2017-06-12T06:38:54.356Z,47.30
2017-06-12T06:41:22.528Z,44.90
2017-06-12T06:43:50.716Z,45.00
2017-06-12T06:46:18.888Z,43.90
2017-06-12T06:48:47.077Z,41.90
2017-06-12T06:51:15.250Z,41.80
2017-06-12T06:53:43.428Z,39.20
2017-06-12T06:56:11.612Z,40.20
2017-06-12T06:58:39.823Z,40.00
2017-06-12T07:01:08.185Z,40.40
2017-06-12T07:03:36.359Z,40.90
2017-06-12T07:06:04.613Z,43.30
2017-06-12T07:08:32.786Z,43.40
2017-06-12T07:11:00.954Z,41.40
2017-06-12T07:13:29.168Z,39.60
2017-06-12T07:15:57.339Z,40.30
2017-06-12T07:18:25.514Z,39.50
2017-06-12T07:20:53.695Z,39.70
2017-06-12T07:23:21.876Z,39.20
2017-06-12T07:25:50.276Z,38.50
2017-06-12T07:28:18.440Z,38.40
2017-06-12T07:30:46.663Z,38.20
2017-06-12T07:33:14.833Z,37.70
2017-06-12T07:35:42.997Z,36.90
2017-06-12T07:38:11.562Z,36.50
2017-06-12T07:40:39.781Z,38.20
2017-06-12T07:43:07.961Z,38.50
2017-06-12T07:45:36.533Z,38.00
2017-06-12T07:48:04.790Z,37.30
2017-06-12T07:50:33.748Z,39.00
2017-06-12T07:53:01.947Z,38.50
2017-06-12T07:55:30.122Z,36.80
2017-06-12T07:57:59.057Z,36.00
2017-06-12T08:00:27.262Z,35.60
2017-06-12T08:02:55.416Z,36.80
2017-06-12T08:05:23.596Z,37.30
2017-06-12T08:07:51.908Z,35.30
2017-06-12T08:10:20.084Z,34.50
2017-06-12T08:12:48.257Z,34.20
2017-06-12T08:15:16.458Z,34.30
2017-06-12T08:17:44.714Z,34.00
2017-06-12T08:20:12.911Z,33.40
2017-06-12T08:22:41.083Z,33.30
2017-06-12T08:25:09.354Z,33.10
2017-06-12T08:27:37.558Z,33.30
2017-06-12T08:30:05.715Z,33.30
2017-06-12T08:32:33.969Z,33.60
2017-06-12T08:35:02.127Z,33.40
2017-06-12T08:37:30.325Z,32.80
2017-06-12T08:39:58.565Z,33.40
2017-06-12T08:42:27.519Z,33.60
2017-06-12T08:44:55.717Z,33.50
2017-06-12T08:47:23.904Z,33.20
2017-06-12T08:49:52.863Z,32.10
2017-06-12T08:52:21.103Z,32.10
2017-06-12T08:54:49.257Z,31.90
2017-06-12T08:57:17.434Z,31.60
2017-06-12T08:59:45.654Z,31.40
2017-06-12T09:02:13.842Z,29.90
2017-06-12T09:04:42.027Z,30.80
2017-06-12T09:07:10.259Z,30.50
2017-06-12T09:09:38.455Z,29.50
2017-06-12T09:12:06.643Z,28.60
2017-06-12T09:14:34.872Z,26.20
2017-06-12T09:17:03.047Z,25.90
2017-06-12T09:19:31.240Z,26.10
2017-06-12T09:21:59.443Z,26.30
2017-06-12T09:24:27.725Z,26.90
2017-06-12T09:26:55.945Z,28.60
2017-06-12T09:29:24.131Z,27.70
2017-06-12T09:31:52.316Z,27.40
2017-06-12T09:34:20.644Z,26.90
2017-06-12T09:36:48.820Z,27.40
2017-06-12T09:39:17.016Z,29.10
2017-06-12T09:41:45.218Z,27.80
2017-06-12T09:44:13.384Z,28.50
2017-06-12T09:46:42.359Z,28.50
2017-06-12T09:49:10.547Z,27.70
2017-06-12T09:51:38.720Z,29.10
2017-06-12T09:54:06.957Z,28.70
2017-06-12T09:56:35.140Z,29.60
2017-06-12T09:59:03.308Z,30.60
2017-06-12T10:01:31.561Z,30.00
2017-06-12T10:04:00.068Z,30.40
2017-06-12T10:06:28.226Z,31.50
2017-06-12T10:08:56.403Z,30.50
2017-06-12T10:11:24.562Z,31.10
2017-06-12T10:13:52.723Z,31.50
2017-06-12T10:16:20.932Z,32.20
2017-06-12T10:18:49.112Z,32.60
2017-06-12T10:21:17.346Z,31.50
2017-06-12T10:23:45.504Z,31.60
2017-06-12T10:26:13.699Z,32.10
2017-06-12T10:28:41.929Z,31.60
2017-06-12T10:31:10.110Z,31.10
2017-06-12T10:33:38.475Z,31.70
2017-06-12T10:36:06.670Z,31.50
2017-06-12T10:38:34.871Z,32.30
2017-06-12T10:41:03.045Z,32.20
2017-06-12T10:43:31.422Z,32.20
2017-06-12T10:45:59.635Z,32.30
2017-06-12T10:48:27.903Z,32.90
2017-06-12T10:50:56.199Z,31.60
2017-06-12T10:53:24.442Z,31.30
2017-06-12T10:55:52.648Z,31.40
2017-06-12T10:58:20.841Z,31.30
2017-06-12T11:00:49.099Z,31.40
2017-06-12T11:03:17.366Z,31.60
2017-06-12T11:05:45.592Z,30.60
2017-06-12T11:08:13.871Z,31.80
2017-06-12T11:10:42.036Z,31.70
2017-06-12T11:13:10.268Z,32.00
2017-06-12T11:15:38.481Z,32.00
2017-06-12T11:18:06.715Z,32.40
2017-06-12T11:20:34.911Z,31.00
2017-06-12T11:23:03.102Z,31.50
2017-06-12T11:25:36.863Z,31.30
2017-06-12T11:28:05.082Z,29.90
2017-06-12T11:30:33.361Z,29.10
2017-06-12T11:33:01.578Z,29.90
2017-06-12T11:35:29.783Z,29.40
2017-06-12T11:37:58.038Z,29.30
2017-06-12T11:40:26.417Z,28.90
2017-06-12T11:42:54.619Z,29.30
2017-06-12T11:45:22.803Z,28.50
2017-06-12T11:47:50.990Z,29.80
2017-06-12T11:50:19.313Z,29.30
2017-06-12T11:52:47.491Z,28.40
2017-06-12T11:55:16.429Z,28.60
2017-06-12T11:57:44.688Z,28.60
2017-06-12T12:00:12.902Z,29.00
2017-06-12T12:02:41.101Z,28.90
2017-06-12T12:05:10.135Z,28.80
2017-06-12T12:07:38.313Z,28.70
2017-06-12T12:10:06.495Z,28.90
2017-06-12T12:12:35.035Z,28.10
2017-06-12T12:15:04.008Z,27.80
2017-06-12T12:17:32.189Z,27.80
2017-06-12T12:20:01.203Z,27.80
2017-06-12T12:22:29.403Z,27.70
2017-06-12T12:24:57.596Z,26.10
2017-06-12T12:27:25.811Z,26.50
2017-06-12T12:29:54.751Z,26.10
2017-06-12T12:32:22.955Z,26.10
2017-06-12T12:34:51.149Z,26.00
2017-06-12T12:37:19.401Z,26.20
2017-06-12T12:39:47.581Z,26.10
2017-06-12T12:42:16.900Z,25.90
2017-06-12T12:44:45.112Z,25.70
2017-06-12T12:47:13.891Z,26.40
2017-06-12T12:49:42.064Z,26.20
2017-06-12T12:52:10.319Z,26.60
2017-06-12T12:54:40.068Z,26.50
2017-06-12T12:57:08.500Z,26.70
2017-06-12T12:59:36.711Z,26.20
2017-06-12T13:02:04.904Z,26.10
2017-06-12T13:04:33.142Z,26.70
2017-06-12T13:07:01.350Z,27.10
2017-06-12T13:09:29.559Z,26.80
2017-06-12T13:11:57.785Z,27.00
2017-06-12T13:14:27.241Z,26.10
2017-06-12T13:16:55.443Z,26.90
2017-06-12T13:19:23.640Z,26.70
2017-06-12T13:21:51.869Z,26.90
2017-06-12T13:24:20.103Z,26.70
2017-06-12T13:26:48.292Z,27.40
2017-06-12T13:29:16.488Z,27.30
2017-06-12T13:31:44.733Z,27.50
2017-06-12T13:34:12.999Z,27.10
2017-06-12T13:36:41.268Z,25.90
2017-06-12T13:39:09.439Z,26.90
2017-06-12T13:41:37.635Z,25.90
2017-06-12T13:44:06.667Z,26.20
2017-06-12T13:46:35.017Z,26.20
2017-06-12T13:49:03.991Z,27.30
2017-06-12T13:51:32.179Z,27.40
2017-06-12T13:54:00.417Z,27.00
2017-06-12T13:56:28.575Z,26.40
2017-06-12T13:58:56.756Z,26.40
2017-06-12T14:01:24.996Z,25.80
2017-06-12T14:03:53.172Z,26.10
2017-06-12T14:06:21.341Z,25.90
2017-06-12T14:08:49.590Z,26.10
2017-06-12T14:11:18.577Z,26.90
2017-06-12T14:13:46.758Z,26.90
2017-06-12T14:16:14.973Z,26.40
2017-06-12T14:18:43.219Z,25.80
2017-06-12T14:21:11.413Z,26.00
2017-06-12T14:23:39.649Z,26.40
2017-06-12T14:26:08.612Z,27.00
2017-06-12T14:28:36.788Z,26.40
2017-06-12T14:31:04.997Z,25.30
2017-06-12T14:33:33.188Z,25.50
2017-06-12T14:36:01.484Z,26.80
2017-06-12T14:38:29.730Z,26.20
2017-06-12T14:40:57.901Z,26.00
2017-06-12T14:43:26.071Z,26.10
2017-06-12T14:45:54.277Z,25.70
2017-06-12T14:48:22.485Z,24.50
2017-06-12T14:50:50.680Z,25.50
2017-06-12T14:53:18.854Z,25.90
2017-06-12T14:55:47.056Z,26.20
2017-06-12T14:58:15.355Z,26.80
2017-06-12T15:00:43.557Z,26.80
2017-06-12T15:03:11.754Z,27.00
2017-06-12T15:05:40.000Z,26.00
2017-06-12T15:08:08.319Z,26.50
2017-06-12T15:10:36.503Z,27.40
2017-06-12T15:13:04.673Z,27.00
2017-06-12T15:15:32.959Z,27.00
2017-06-12T15:18:01.143Z,27.20
2017-06-12T15:20:29.336Z,27.70
2017-06-12T15:22:57.560Z,27.50
2017-06-12T15:25:25.739Z,27.30
2017-06-12T15:27:54.015Z,27.60
2017-06-12T15:30:22.268Z,27.60
2017-06-12T15:32:50.544Z,26.00
2017-06-12T15:35:18.790Z,26.20
2017-06-12T15:37:47.127Z,26.60
2017-06-12T15:40:15.344Z,27.40
2017-06-12T15:42:44.344Z,26.00
2017-06-12T15:45:12.532Z,26.00
2017-06-12T15:47:41.142Z,26.80
2017-06-12T15:50:09.406Z,27.30
2017-06-12T15:52:37.617Z,27.60
2017-06-12T15:55:05.844Z,26.20
2017-06-12T15:57:34.183Z,27.40
2017-06-12T16:00:02.354Z,27.30
2017-06-12T16:02:30.606Z,27.80
2017-06-12T16:04:58.803Z,27.80
2017-06-12T16:07:27.023Z,28.80
2017-06-12T16:09:55.312Z,28.20
2017-06-12T16:12:23.490Z,28.20
2017-06-12T16:14:51.794Z,28.00
2017-06-12T16:17:20.025Z,27.50
2017-06-12T16:19:48.209Z,30.80
2017-06-12T16:22:16.398Z,29.00
2017-06-12T16:24:44.597Z,30.20
2017-06-12T16:27:12.908Z,29.40
2017-06-12T16:29:41.117Z,29.00
2017-06-12T16:32:09.422Z,28.30
2017-06-12T16:34:38.448Z,28.80
2017-06-12T16:37:06.611Z,28.80
2017-06-12T16:39:34.825Z,28.70
2017-06-12T16:42:03.039Z,28.60
2017-06-12T16:44:39.243Z,30.20
2017-06-12T16:47:10.195Z,33.30
2017-06-12T16:49:38.368Z,31.60
2017-06-12T16:52:06.747Z,32.40
2017-06-12T16:54:35.002Z,32.90
2017-06-12T16:57:03.280Z,34.40
2017-06-12T16:59:31.454Z,34.80
2017-06-12T17:01:59.687Z,34.60
2017-06-12T17:04:28.664Z,36.80
2017-06-12T17:06:56.888Z,36.50
2017-06-12T17:09:25.087Z,36.10
2017-06-12T17:11:53.228Z,37.00
2017-06-12T17:14:21.400Z,37.00
2017-06-12T17:16:49.636Z,36.40
2017-06-12T17:19:17.823Z,36.30
2017-06-12T17:21:46.022Z,37.60
2017-06-12T17:24:15.889Z,37.40
2017-06-12T17:26:47.734Z,39.10
2017-06-12T17:29:16.586Z,39.70
2017-06-12T17:31:44.850Z,40.50
2017-06-12T17:34:13.137Z,42.20
2017-06-12T17:36:41.600Z,41.40
2017-06-12T17:39:09.777Z,44.60
2017-06-12T17:41:37.961Z,44.10
2017-06-12T17:44:06.236Z,42.20
2017-06-12T17:46:34.411Z,43.00
2017-06-12T17:49:02.666Z,44.40
2017-06-12T17:51:30.858Z,45.00
2017-06-12T17:53:59.045Z,44.60
2017-06-12T17:56:27.245Z,45.30
2017-06-12T17:58:55.479Z,44.90
2017-06-12T18:01:23.717Z,44.30
2017-06-12T18:03:52.827Z,44.70
2017-06-12T18:06:21.224Z,44.60
2017-06-12T18:08:49.566Z,45.60
2017-06-12T18:11:18.537Z,45.90
2017-06-12T18:13:46.722Z,45.90
2017-06-12T18:16:15.004Z,45.80
2017-06-12T18:18:43.316Z,45.60
2017-06-12T18:21:11.530Z,46.10
2017-06-12T18:23:39.763Z,45.70
2017-06-12T18:26:08.094Z,46.60
2017-06-12T18:28:36.372Z,46.60
2017-06-12T18:31:04.608Z,46.90
2017-06-12T18:33:33.010Z,46.80
2017-06-12T18:36:01.192Z,48.50
2017-06-12T18:38:29.392Z,47.00
2017-06-12T18:40:57.609Z,47.70
2017-06-12T18:43:25.978Z,48.50
2017-06-12T18:45:54.233Z,48.90
2017-06-12T18:48:22.427Z,47.40
2017-06-12T18:50:50.687Z,48.50
2017-06-12T18:53:18.900Z,47.90
2017-06-12T18:55:47.127Z,48.10
2017-06-12T18:58:15.369Z,47.80
2017-06-12T19:00:44.357Z,49.30
2017-06-12T19:03:12.564Z,49.20
2017-06-12T19:05:40.807Z,49.00
2017-06-12T19:08:09.082Z,48.90
2017-06-12T19:10:37.264Z,49.00
2017-06-12T19:13:05.552Z,49.60
2017-06-12T19:15:33.794Z,50.20
2017-06-12T19:18:02.919Z,50.70
2017-06-12T19:20:31.967Z,51.20
2017-06-12T19:23:00.167Z,51.20
2017-06-12T19:25:28.383Z,52.50
2017-06-12T19:27:56.588Z,53.20
2017-06-12T19:30:24.774Z,53.50
2017-06-12T19:32:53.300Z,53.60
2017-06-12T19:35:21.517Z,53.70
2017-06-12T19:37:49.699Z,52.90
2017-06-12T19:40:17.948Z,52.50
2017-06-12T19:42:46.328Z,52.40
2017-06-12T19:45:14.546Z,52.00
2017-06-12T19:47:42.771Z,52.30
2017-06-12T19:50:11.000Z,52.30
2017-06-12T19:52:39.343Z,52.70
2017-06-12T19:55:07.554Z,53.90
2017-06-12T19:57:35.791Z,54.70
2017-06-12T20:00:04.053Z,55.40
2017-06-12T20:02:32.304Z,55.90
2017-06-12T20:05:00.502Z,56.00
2017-06-12T20:07:28.669Z,55.50
2017-06-12T20:09:56.975Z,56.00
2017-06-12T20:12:25.211Z,55.90
2017-06-12T20:14:53.452Z,55.30
2017-06-12T20:17:21.659Z,55.10
2017-06-12T20:19:50.355Z,54.10
2017-06-12T20:22:19.400Z,55.00
2017-06-12T20:24:47.805Z,54.90
2017-06-12T20:27:16.041Z,55.80
2017-06-12T20:29:44.691Z,57.00
2017-06-12T20:32:13.689Z,58.60
2017-06-12T20:34:41.862Z,59.20
2017-06-12T20:37:10.087Z,57.70
2017-06-12T20:39:38.256Z,58.60
2017-06-12T20:42:06.492Z,59.50
2017-06-12T20:44:34.717Z,59.40
2017-06-12T20:47:03.334Z,60.70
2017-06-12T20:49:31.563Z,60.10
2017-06-12T20:51:59.765Z,60.80
2017-06-12T20:54:27.992Z,61.60
2017-06-12T20:56:56.229Z,60.60
2017-06-12T20:59:24.427Z,61.70
2017-06-12T21:01:52.678Z,62.10
2017-06-12T21:04:20.919Z,61.80
2017-06-12T21:06:49.400Z,61.20
2017-06-12T21:09:17.595Z,61.00
2017-06-12T21:11:45.813Z,61.30
2017-06-12T21:14:14.794Z,62.00
2017-06-12T21:16:43.072Z,62.00
2017-06-12T21:19:11.379Z,63.00
2017-06-12T21:21:39.586Z,62.40
2017-06-12T21:24:07.786Z,61.70
2017-06-12T21:26:35.999Z,61.80
2017-06-12T21:29:04.233Z,60.40
2017-06-12T21:31:32.396Z,60.20
2017-06-12T21:34:00.630Z,60.90
2017-06-12T21:36:28.848Z,61.50
2017-06-12T21:38:57.036Z,61.20
2017-06-12T21:41:25.302Z,61.40
2017-06-12T21:43:53.732Z,60.80
2017-06-12T21:46:22.211Z,61.60
2017-06-12T21:48:50.433Z,61.30
2017-06-12T21:51:18.645Z,61.00
2017-06-12T21:53:46.843Z,60.60
2017-06-12T21:56:15.047Z,60.40
2017-06-12T21:58:43.216Z,60.00
2017-06-12T22:01:11.391Z,59.40
2017-06-12T22:03:39.615Z,60.50
2017-06-12T22:06:07.836Z,61.50
2017-06-12T22:08:36.013Z,61.60
2017-06-12T22:11:04.204Z,61.80
2017-06-12T22:13:32.390Z,61.60
2017-06-12T22:16:00.765Z,61.30
2017-06-12T22:18:28.980Z,60.20
2017-06-12T22:20:57.168Z,60.10
2017-06-12T22:23:25.360Z,58.90
2017-06-12T22:25:53.546Z,58.60
2017-06-12T22:28:21.719Z,58.40
2017-06-12T22:30:50.008Z,59.70
2017-06-12T22:33:18.220Z,60.50
2017-06-12T22:35:46.427Z,61.10
2017-06-12T22:38:14.648Z,60.90
2017-06-12T22:40:42.930Z,60.30
2017-06-12T22:43:11.117Z,60.10
2017-06-12T22:45:39.320Z,60.30
2017-06-12T22:48:07.534Z,60.30
2017-06-12T22:50:35.715Z,60.60
2017-06-12T22:53:03.876Z,61.40
2017-06-12T22:55:32.104Z,62.30
2017-06-12T22:58:00.273Z,62.60
2017-06-12T23:00:28.454Z,63.20
2017-06-12T23:02:56.668Z,63.50
2017-06-12T23:05:24.844Z,63.90
2017-06-12T23:07:53.089Z,63.20
2017-06-12T23:10:21.251Z,62.60
2017-06-12T23:12:49.423Z,62.50
2017-06-12T23:15:17.726Z,63.10
2017-06-12T23:17:45.919Z,63.90
2017-06-12T23:20:14.075Z,64.60
2017-06-12T23:22:47.947Z,64.70
2017-06-12T23:25:16.166Z,64.60
2017-06-12T23:27:50.027Z,64.20
2017-06-12T23:30:18.200Z,63.70
2017-06-12T23:32:48.193Z,63.00
2017-06-12T23:35:17.319Z,63.30
2017-06-12T23:37:45.534Z,64.50
2017-06-12T23:40:13.911Z,65.90
2017-06-12T23:42:42.261Z,66.70
2017-06-12T23:45:10.432Z,68.00
2017-06-12T23:47:38.660Z,68.60
2017-06-12T23:50:07.016Z,68.70
2017-06-12T23:52:35.211Z,68.40
2017-06-12T23:55:03.388Z,68.00
2017-06-12T23:57:31.604Z,67.60
2017-06-12T23:59:59.995Z,66.80
